sensor_id;sensor_type;location;lat;lon;timestamp;temperature;humidity
20735;DHT22;10528;52.124;5.196;2022-07-04T00:00:50;15.00;99.90
20735;DHT22;10528;52.124;5.196;2022-07-04T00:03:16;14.90;99.90
20735;DHT22;10528;52.124;5.196;2022-07-04T00:05:43;14.90;99.90
20735;DHT22;10528;52.124;5.196;2022-07-04T00:08:10;14.80;99.90
20735;DHT22;10528;52.124;5.196;2022-07-04T00:10:37;14.70;99.90
20735;DHT22;10528;52.124;5.196;2022-07-04T00:13:04;14.70;99.90
20735;DHT22;10528;52.124;5.196;2022-07-04T00:15:32;14.70;99.90
20735;DHT22;10528;52.124;5.196;2022-07-04T00:17:59;14.60;99.90
20735;DHT22;10528;52.124;5.196;2022-07-04T00:20:25;14.60;99.90
20735;DHT22;10528;52.124;5.196;2022-07-04T00:22:53;14.60;99.90
20735;DHT22;10528;52.124;5.196;2022-07-04T00:25:20;14.60;99.90
20735;DHT22;10528;52.124;5.196;2022-07-04T00:27:47;14.60;99.90
20735;DHT22;10528;52.124;5.196;2022-07-04T00:30:14;14.50;99.90
20735;DHT22;10528;52.124;5.196;2022-07-04T00:32:41;14.40;99.90
20735;DHT22;10528;52.124;5.196;2022-07-04T00:35:08;14.50;99.90
20735;DHT22;10528;52.124;5.196;2022-07-04T00:37:35;14.40;99.90
20735;DHT22;10528;52.124;5.196;2022-07-04T00:40:03;14.40;99.90
20735;DHT22;10528;52.124;5.196;2022-07-04T00:42:30;14.40;99.90
20735;DHT22;10528;52.124;5.196;2022-07-04T00:44:57;14.40;99.90
20735;DHT22;10528;52.124;5.196;2022-07-04T00:47:23;14.30;99.90
20735;DHT22;10528;52.124;5.196;2022-07-04T00:49:50;14.30;99.90
20735;DHT22;10528;52.124;5.196;2022-07-04T00:52:17;14.20;99.90
20735;DHT22;10528;52.124;5.196;2022-07-04T00:54:45;14.20;99.90
20735;DHT22;10528;52.124;5.196;2022-07-04T00:57:13;14.20;99.90
20735;DHT22;10528;52.124;5.196;2022-07-04T00:59:39;14.10;99.90
20735;DHT22;10528;52.124;5.196;2022-07-04T01:02:07;14.10;99.90
20735;DHT22;10528;52.124;5.196;2022-07-04T01:04:34;14.10;99.90
20735;DHT22;10528;52.124;5.196;2022-07-04T01:07:03;14.00;99.90
20735;DHT22;10528;52.124;5.196;2022-07-04T01:09:31;14.00;99.90
20735;DHT22;10528;52.124;5.196;2022-07-04T01:11:58;14.00;99.90
20735;DHT22;10528;52.124;5.196;2022-07-04T01:14:24;14.00;99.90
20735;DHT22;10528;52.124;5.196;2022-07-04T01:16:51;13.90;99.90
20735;DHT22;10528;52.124;5.196;2022-07-04T01:19:18;13.90;99.90
20735;DHT22;10528;52.124;5.196;2022-07-04T01:21:45;14.00;99.90
20735;DHT22;10528;52.124;5.196;2022-07-04T01:24:12;13.90;99.90
20735;DHT22;10528;52.124;5.196;2022-07-04T01:26:39;13.80;99.90
20735;DHT22;10528;52.124;5.196;2022-07-04T01:29:06;13.90;99.90
20735;DHT22;10528;52.124;5.196;2022-07-04T01:31:33;13.90;99.90
20735;DHT22;10528;52.124;5.196;2022-07-04T01:34:00;14.00;99.90
20735;DHT22;10528;52.124;5.196;2022-07-04T01:36:27;14.00;99.90
20735;DHT22;10528;52.124;5.196;2022-07-04T01:38:53;14.00;99.90
20735;DHT22;10528;52.124;5.196;2022-07-04T01:41:22;14.00;99.90
20735;DHT22;10528;52.124;5.196;2022-07-04T01:43:49;14.00;99.90
20735;DHT22;10528;52.124;5.196;2022-07-04T01:46:16;13.90;99.90
20735;DHT22;10528;52.124;5.196;2022-07-04T01:48:43;13.90;99.90
20735;DHT22;10528;52.124;5.196;2022-07-04T01:51:10;13.90;99.90
20735;DHT22;10528;52.124;5.196;2022-07-04T01:53:37;13.90;99.90
20735;DHT22;10528;52.124;5.196;2022-07-04T01:56:04;13.90;99.90
20735;DHT22;10528;52.124;5.196;2022-07-04T01:58:31;13.80;99.90
20735;DHT22;10528;52.124;5.196;2022-07-04T02:00:58;13.70;99.90
20735;DHT22;10528;52.124;5.196;2022-07-04T02:03:43;13.70;99.90
20735;DHT22;10528;52.124;5.196;2022-07-04T02:06:12;13.60;99.90
20735;DHT22;10528;52.124;5.196;2022-07-04T02:08:39;13.70;99.90
20735;DHT22;10528;52.124;5.196;2022-07-04T02:11:24;13.70;99.90
20735;DHT22;10528;52.124;5.196;2022-07-04T02:13:51;13.70;99.90
20735;DHT22;10528;52.124;5.196;2022-07-04T02:16:18;13.70;99.90
20735;DHT22;10528;52.124;5.196;2022-07-04T02:18:45;13.70;99.90
20735;DHT22;10528;52.124;5.196;2022-07-04T02:21:12;13.70;99.90
20735;DHT22;10528;52.124;5.196;2022-07-04T02:23:39;13.70;99.90
20735;DHT22;10528;52.124;5.196;2022-07-04T02:26:06;13.70;99.90
20735;DHT22;10528;52.124;5.196;2022-07-04T02:28:33;13.70;99.90
20735;DHT22;10528;52.124;5.196;2022-07-04T02:31:00;13.70;99.90
20735;DHT22;10528;52.124;5.196;2022-07-04T02:33:27;13.60;99.90
20735;DHT22;10528;52.124;5.196;2022-07-04T02:35:53;13.60;99.90
20735;DHT22;10528;52.124;5.196;2022-07-04T02:38:20;13.60;99.90
20735;DHT22;10528;52.124;5.196;2022-07-04T02:40:47;13.50;99.90
20735;DHT22;10528;52.124;5.196;2022-07-04T02:43:14;13.50;99.90
20735;DHT22;10528;52.124;5.196;2022-07-04T02:45:41;13.50;99.90
20735;DHT22;10528;52.124;5.196;2022-07-04T02:48:07;13.50;99.90
20735;DHT22;10528;52.124;5.196;2022-07-04T02:50:34;13.50;99.90
20735;DHT22;10528;52.124;5.196;2022-07-04T02:53:01;13.50;99.90
20735;DHT22;10528;52.124;5.196;2022-07-04T02:55:28;13.50;99.90
20735;DHT22;10528;52.124;5.196;2022-07-04T02:57:55;13.50;99.90
20735;DHT22;10528;52.124;5.196;2022-07-04T03:00:22;13.40;99.90
20735;DHT22;10528;52.124;5.196;2022-07-04T03:02:49;13.40;99.90
20735;DHT22;10528;52.124;5.196;2022-07-04T03:05:16;13.40;99.90
20735;DHT22;10528;52.124;5.196;2022-07-04T03:07:43;13.40;99.90
20735;DHT22;10528;52.124;5.196;2022-07-04T03:10:10;13.40;99.90
20735;DHT22;10528;52.124;5.196;2022-07-04T03:12:37;13.40;99.90
20735;DHT22;10528;52.124;5.196;2022-07-04T03:15:04;13.40;99.90
20735;DHT22;10528;52.124;5.196;2022-07-04T03:17:31;13.40;99.90
20735;DHT22;10528;52.124;5.196;2022-07-04T03:19:58;13.40;99.90
20735;DHT22;10528;52.124;5.196;2022-07-04T03:22:26;13.40;99.90
20735;DHT22;10528;52.124;5.196;2022-07-04T03:24:53;13.40;99.90
20735;DHT22;10528;52.124;5.196;2022-07-04T03:27:21;13.40;99.90
20735;DHT22;10528;52.124;5.196;2022-07-04T03:29:48;13.40;99.90
20735;DHT22;10528;52.124;5.196;2022-07-04T03:32:15;13.40;99.90
20735;DHT22;10528;52.124;5.196;2022-07-04T03:34:41;13.40;99.90
20735;DHT22;10528;52.124;5.196;2022-07-04T03:37:08;13.40;99.90
20735;DHT22;10528;52.124;5.196;2022-07-04T03:39:35;13.40;99.90
20735;DHT22;10528;52.124;5.196;2022-07-04T03:42:02;13.40;99.90
20735;DHT22;10528;52.124;5.196;2022-07-04T03:44:29;13.40;99.90
20735;DHT22;10528;52.124;5.196;2022-07-04T03:46:56;13.40;99.90
20735;DHT22;10528;52.124;5.196;2022-07-04T03:49:25;13.40;99.90
20735;DHT22;10528;52.124;5.196;2022-07-04T03:51:52;13.60;99.90
20735;DHT22;10528;52.124;5.196;2022-07-04T03:54:19;13.70;99.90
20735;DHT22;10528;52.124;5.196;2022-07-04T03:56:45;13.80;99.90
20735;DHT22;10528;52.124;5.196;2022-07-04T03:59:12;13.70;99.90
20735;DHT22;10528;52.124;5.196;2022-07-04T04:01:39;13.80;99.90
20735;DHT22;10528;52.124;5.196;2022-07-04T04:04:08;13.80;99.90
20735;DHT22;10528;52.124;5.196;2022-07-04T04:06:53;13.80;99.90
20735;DHT22;10528;52.124;5.196;2022-07-04T04:09:20;13.80;99.90
20735;DHT22;10528;52.124;5.196;2022-07-04T04:11:47;14.00;99.90
20735;DHT22;10528;52.124;5.196;2022-07-04T04:14:14;14.00;99.90
20735;DHT22;10528;52.124;5.196;2022-07-04T04:16:41;14.00;99.90
20735;DHT22;10528;52.124;5.196;2022-07-04T04:19:10;14.10;99.90
20735;DHT22;10528;52.124;5.196;2022-07-04T04:21:37;14.20;99.90
20735;DHT22;10528;52.124;5.196;2022-07-04T04:24:04;14.10;99.90
20735;DHT22;10528;52.124;5.196;2022-07-04T04:26:31;14.20;99.90
20735;DHT22;10528;52.124;5.196;2022-07-04T04:28:58;14.30;99.90
20735;DHT22;10528;52.124;5.196;2022-07-04T04:31:26;14.40;99.90
20735;DHT22;10528;52.124;5.196;2022-07-04T04:33:53;14.50;99.90
20735;DHT22;10528;52.124;5.196;2022-07-04T04:36:20;14.60;99.90
20735;DHT22;10528;52.124;5.196;2022-07-04T04:38:47;14.60;99.90
20735;DHT22;10528;52.124;5.196;2022-07-04T04:41:14;14.70;99.90
20735;DHT22;10528;52.124;5.196;2022-07-04T04:43:43;14.70;99.90
20735;DHT22;10528;52.124;5.196;2022-07-04T04:46:09;14.80;99.90
20735;DHT22;10528;52.124;5.196;2022-07-04T04:48:37;14.80;99.90
20735;DHT22;10528;52.124;5.196;2022-07-04T04:51:04;14.90;99.90
20735;DHT22;10528;52.124;5.196;2022-07-04T04:53:35;15.00;99.90
20735;DHT22;10528;52.124;5.196;2022-07-04T04:56:03;15.00;99.90
20735;DHT22;10528;52.124;5.196;2022-07-04T04:58:31;15.10;99.90
20735;DHT22;10528;52.124;5.196;2022-07-04T05:00:58;15.20;99.90
20735;DHT22;10528;52.124;5.196;2022-07-04T05:03:45;15.40;99.90
20735;DHT22;10528;52.124;5.196;2022-07-04T05:06:12;16.30;99.90
20735;DHT22;10528;52.124;5.196;2022-07-04T05:08:39;17.00;99.90
20735;DHT22;10528;52.124;5.196;2022-07-04T05:11:06;17.50;99.90
20735;DHT22;10528;52.124;5.196;2022-07-04T05:13:33;17.90;99.90
20735;DHT22;10528;52.124;5.196;2022-07-04T05:16:00;17.30;99.90
20735;DHT22;10528;52.124;5.196;2022-07-04T05:18:27;17.10;99.90
20735;DHT22;10528;52.124;5.196;2022-07-04T05:20:54;17.30;99.90
20735;DHT22;10528;52.124;5.196;2022-07-04T05:23:21;18.20;99.90
20735;DHT22;10528;52.124;5.196;2022-07-04T05:25:48;18.50;99.90
20735;DHT22;10528;52.124;5.196;2022-07-04T05:28:15;19.00;99.90
20735;DHT22;10528;52.124;5.196;2022-07-04T05:30:42;19.50;99.90
20735;DHT22;10528;52.124;5.196;2022-07-04T05:33:09;19.40;99.90
20735;DHT22;10528;52.124;5.196;2022-07-04T05:35:36;18.90;99.90
20735;DHT22;10528;52.124;5.196;2022-07-04T05:38:03;18.40;99.90
20735;DHT22;10528;52.124;5.196;2022-07-04T05:40:30;18.00;99.90
20735;DHT22;10528;52.124;5.196;2022-07-04T05:42:57;17.90;99.90
20735;DHT22;10528;52.124;5.196;2022-07-04T05:45:23;17.80;99.90
20735;DHT22;10528;52.124;5.196;2022-07-04T05:47:50;17.70;99.90
20735;DHT22;10528;52.124;5.196;2022-07-04T05:50:17;17.70;99.90
20735;DHT22;10528;52.124;5.196;2022-07-04T05:52:44;18.20;99.90
20735;DHT22;10528;52.124;5.196;2022-07-04T05:55:11;19.00;99.90
20735;DHT22;10528;52.124;5.196;2022-07-04T05:57:38;19.80;99.90
20735;DHT22;10528;52.124;5.196;2022-07-04T06:00:11;21.00;99.90
20735;DHT22;10528;52.124;5.196;2022-07-04T06:02:38;21.60;99.90
20735;DHT22;10528;52.124;5.196;2022-07-04T06:05:05;21.90;99.90
20735;DHT22;10528;52.124;5.196;2022-07-04T06:07:33;21.80;99.90
20735;DHT22;10528;52.124;5.196;2022-07-04T06:10:00;21.60;99.90
20735;DHT22;10528;52.124;5.196;2022-07-04T06:12:27;21.30;99.90
20735;DHT22;10528;52.124;5.196;2022-07-04T06:14:54;21.10;99.90
20735;DHT22;10528;52.124;5.196;2022-07-04T06:17:21;20.50;99.90
20735;DHT22;10528;52.124;5.196;2022-07-04T06:19:48;20.90;99.90
20735;DHT22;10528;52.124;5.196;2022-07-04T06:22:15;20.50;99.90
20735;DHT22;10528;52.124;5.196;2022-07-04T06:24:42;20.00;99.90
20735;DHT22;10528;52.124;5.196;2022-07-04T06:27:09;20.70;99.90
20735;DHT22;10528;52.124;5.196;2022-07-04T06:29:37;21.70;99.90
20735;DHT22;10528;52.124;5.196;2022-07-04T06:32:04;22.40;99.90
20735;DHT22;10528;52.124;5.196;2022-07-04T06:34:31;22.80;99.90
20735;DHT22;10528;52.124;5.196;2022-07-04T06:37:16;23.60;99.90
20735;DHT22;10528;52.124;5.196;2022-07-04T06:39:44;23.70;99.90
20735;DHT22;10528;52.124;5.196;2022-07-04T06:42:11;23.30;99.90
20735;DHT22;10528;52.124;5.196;2022-07-04T06:44:37;23.20;99.90
20735;DHT22;10528;52.124;5.196;2022-07-04T06:47:04;23.30;99.90
20735;DHT22;10528;52.124;5.196;2022-07-04T06:49:31;23.00;99.90
20735;DHT22;10528;52.124;5.196;2022-07-04T06:51:58;23.20;99.90
20735;DHT22;10528;52.124;5.196;2022-07-04T06:54:25;23.70;99.90
20735;DHT22;10528;52.124;5.196;2022-07-04T06:56:52;23.50;99.90
20735;DHT22;10528;52.124;5.196;2022-07-04T06:59:39;23.60;99.90
20735;DHT22;10528;52.124;5.196;2022-07-04T07:02:06;23.50;99.90
20735;DHT22;10528;52.124;5.196;2022-07-04T07:04:34;23.70;99.90
20735;DHT22;10528;52.124;5.196;2022-07-04T07:07:01;24.10;99.90
20735;DHT22;10528;52.124;5.196;2022-07-04T07:09:28;24.50;99.90
20735;DHT22;10528;52.124;5.196;2022-07-04T07:11:55;24.00;99.90
20735;DHT22;10528;52.124;5.196;2022-07-04T07:14:22;23.70;99.90
20735;DHT22;10528;52.124;5.196;2022-07-04T07:16:48;23.60;99.90
20735;DHT22;10528;52.124;5.196;2022-07-04T07:19:15;23.70;99.90
20735;DHT22;10528;52.124;5.196;2022-07-04T07:21:42;23.10;99.90
20735;DHT22;10528;52.124;5.196;2022-07-04T07:24:09;23.40;99.90
20735;DHT22;10528;52.124;5.196;2022-07-04T07:26:36;24.00;99.90
20735;DHT22;10528;52.124;5.196;2022-07-04T07:29:03;24.30;99.90
20735;DHT22;10528;52.124;5.196;2022-07-04T07:31:30;23.90;99.90
20735;DHT22;10528;52.124;5.196;2022-07-04T07:33:57;23.50;99.90
20735;DHT22;10528;52.124;5.196;2022-07-04T07:36:24;23.30;99.90
20735;DHT22;10528;52.124;5.196;2022-07-04T07:38:51;23.50;99.90
20735;DHT22;10528;52.124;5.196;2022-07-04T07:41:19;23.70;99.90
20735;DHT22;10528;52.124;5.196;2022-07-04T07:43:46;24.20;99.90
20735;DHT22;10528;52.124;5.196;2022-07-04T07:46:13;24.60;99.90
20735;DHT22;10528;52.124;5.196;2022-07-04T07:48:40;24.70;99.90
20735;DHT22;10528;52.124;5.196;2022-07-04T07:51:07;24.50;99.90
20735;DHT22;10528;52.124;5.196;2022-07-04T07:53:36;24.40;99.90
20735;DHT22;10528;52.124;5.196;2022-07-04T07:56:23;24.40;99.90
20735;DHT22;10528;52.124;5.196;2022-07-04T07:58:50;24.00;99.90
20735;DHT22;10528;52.124;5.196;2022-07-04T08:01:18;24.00;99.90
20735;DHT22;10528;52.124;5.196;2022-07-04T08:03:45;23.50;99.90
20735;DHT22;10528;52.124;5.196;2022-07-04T08:06:32;23.70;99.90
20735;DHT22;10528;52.124;5.196;2022-07-04T08:09:00;24.20;99.90
20735;DHT22;10528;52.124;5.196;2022-07-04T08:11:27;24.30;99.90
20735;DHT22;10528;52.124;5.196;2022-07-04T08:13:54;24.00;99.90
20735;DHT22;10528;52.124;5.196;2022-07-04T08:16:21;24.00;99.90
20735;DHT22;10528;52.124;5.196;2022-07-04T08:19:08;24.60;99.90
20735;DHT22;10528;52.124;5.196;2022-07-04T08:21:35;24.40;99.90
20735;DHT22;10528;52.124;5.196;2022-07-04T08:24:22;23.90;99.90
20735;DHT22;10528;52.124;5.196;2022-07-04T08:26:49;23.40;99.90
20735;DHT22;10528;52.124;5.196;2022-07-04T08:29:16;23.20;99.90
20735;DHT22;10528;52.124;5.196;2022-07-04T08:31:43;23.10;99.90
20735;DHT22;10528;52.124;5.196;2022-07-04T08:34:18;22.60;99.90
20735;DHT22;10528;52.124;5.196;2022-07-04T08:36:45;22.70;99.90
20735;DHT22;10528;52.124;5.196;2022-07-04T08:39:12;22.50;99.90
20735;DHT22;10528;52.124;5.196;2022-07-04T08:41:40;22.70;99.90
20735;DHT22;10528;52.124;5.196;2022-07-04T08:44:08;22.60;99.90
20735;DHT22;10528;52.124;5.196;2022-07-04T08:46:40;22.80;99.90
20735;DHT22;10528;52.124;5.196;2022-07-04T08:49:21;23.20;99.90
20735;DHT22;10528;52.124;5.196;2022-07-04T08:52:05;23.50;99.90
20735;DHT22;10528;52.124;5.196;2022-07-04T08:54:34;23.50;99.90
20735;DHT22;10528;52.124;5.196;2022-07-04T08:57:20;23.60;99.90
20735;DHT22;10528;52.124;5.196;2022-07-04T09:00:06;23.30;99.90
20735;DHT22;10528;52.124;5.196;2022-07-04T09:02:34;23.10;99.90
20735;DHT22;10528;52.124;5.196;2022-07-04T09:05:04;23.00;99.90
20735;DHT22;10528;52.124;5.196;2022-07-04T09:07:32;22.70;99.90
20735;DHT22;10528;52.124;5.196;2022-07-04T09:10:00;22.70;99.90
20735;DHT22;10528;52.124;5.196;2022-07-04T09:12:29;22.80;99.90
20735;DHT22;10528;52.124;5.196;2022-07-04T09:15:16;22.70;99.90
20735;DHT22;10528;52.124;5.196;2022-07-04T09:17:44;22.60;99.90
20735;DHT22;10528;52.124;5.196;2022-07-04T09:20:22;22.70;99.90
20735;DHT22;10528;52.124;5.196;2022-07-04T09:22:51;22.70;99.90
20735;DHT22;10528;52.124;5.196;2022-07-04T09:25:20;22.90;99.90
20735;DHT22;10528;52.124;5.196;2022-07-04T09:27:50;22.80;99.90
20735;DHT22;10528;52.124;5.196;2022-07-04T09:30:21;22.90;99.90
20735;DHT22;10528;52.124;5.196;2022-07-04T09:32:52;22.80;99.90
20735;DHT22;10528;52.124;5.196;2022-07-04T09:35:28;22.90;99.90
20735;DHT22;10528;52.124;5.196;2022-07-04T09:38:04;22.80;99.90
20735;DHT22;10528;52.124;5.196;2022-07-04T09:40:34;22.80;99.90
20735;DHT22;10528;52.124;5.196;2022-07-04T09:43:21;22.80;99.90
20735;DHT22;10528;52.124;5.196;2022-07-04T09:45:56;22.70;99.90
20735;DHT22;10528;52.124;5.196;2022-07-04T09:48:25;22.60;99.90
20735;DHT22;10528;52.124;5.196;2022-07-04T09:50:53;22.70;99.90
20735;DHT22;10528;52.124;5.196;2022-07-04T09:53:27;22.60;99.90
20735;DHT22;10528;52.124;5.196;2022-07-04T09:55:54;22.20;99.90
20735;DHT22;10528;52.124;5.196;2022-07-04T09:58:21;22.30;99.90
20735;DHT22;10528;52.124;5.196;2022-07-04T10:00:47;22.50;99.90
20735;DHT22;10528;52.124;5.196;2022-07-04T10:03:24;22.30;99.90
20735;DHT22;10528;52.124;5.196;2022-07-04T10:08:42;22.50;99.90
20735;DHT22;10528;52.124;5.196;2022-07-04T10:11:10;22.40;99.90
20735;DHT22;10528;52.124;5.196;2022-07-04T10:13:45;22.60;99.90
20735;DHT22;10528;52.124;5.196;2022-07-04T10:16:16;22.70;99.90
20735;DHT22;10528;52.124;5.196;2022-07-04T10:18:44;22.90;99.90
20735;DHT22;10528;52.124;5.196;2022-07-04T10:21:12;23.10;99.90
20735;DHT22;10528;52.124;5.196;2022-07-04T10:23:41;23.20;99.90
20735;DHT22;10528;52.124;5.196;2022-07-04T10:26:10;23.30;99.90
20735;DHT22;10528;52.124;5.196;2022-07-04T10:28:37;23.30;99.90
20735;DHT22;10528;52.124;5.196;2022-07-04T10:31:05;23.30;99.90
20735;DHT22;10528;52.124;5.196;2022-07-04T10:33:32;23.40;99.90
20735;DHT22;10528;52.124;5.196;2022-07-04T10:36:03;23.50;99.90
20735;DHT22;10528;52.124;5.196;2022-07-04T10:38:33;23.50;99.90
20735;DHT22;10528;52.124;5.196;2022-07-04T10:41:12;23.50;99.90
20735;DHT22;10528;52.124;5.196;2022-07-04T10:51:41;23.70;99.90
20735;DHT22;10528;52.124;5.196;2022-07-04T10:54:17;23.90;99.90
20735;DHT22;10528;52.124;5.196;2022-07-04T10:56:47;23.90;99.90
20735;DHT22;10528;52.124;5.196;2022-07-04T11:18:04;23.80;99.90
20735;DHT22;10528;52.124;5.196;2022-07-04T11:20:36;23.80;99.90
20735;DHT22;10528;52.124;5.196;2022-07-04T11:23:15;23.90;99.90
20735;DHT22;10528;52.124;5.196;2022-07-04T11:25:45;23.50;99.90
20735;DHT22;10528;52.124;5.196;2022-07-04T11:31:11;23.40;99.90
20735;DHT22;10528;52.124;5.196;2022-07-04T11:33:39;23.20;99.90
20735;DHT22;10528;52.124;5.196;2022-07-04T11:36:18;23.40;99.90
20735;DHT22;10528;52.124;5.196;2022-07-04T11:38:53;23.50;99.90
20735;DHT22;10528;52.124;5.196;2022-07-04T11:41:24;23.60;99.90
20735;DHT22;10528;52.124;5.196;2022-07-04T11:44:16;23.70;99.90
20735;DHT22;10528;52.124;5.196;2022-07-04T11:49:53;23.80;99.90
20735;DHT22;10528;52.124;5.196;2022-07-04T11:52:24;23.80;99.90
20735;DHT22;10528;52.124;5.196;2022-07-04T11:55:16;23.80;99.90
20735;DHT22;10528;52.124;5.196;2022-07-04T11:57:45;23.80;99.90
20735;DHT22;10528;52.124;5.196;2022-07-04T12:00:18;23.80;99.90
20735;DHT22;10528;52.124;5.196;2022-07-04T12:02:49;23.90;99.90
20735;DHT22;10528;52.124;5.196;2022-07-04T12:05:17;23.60;99.90
20735;DHT22;10528;52.124;5.196;2022-07-04T12:07:46;23.70;99.90
20735;DHT22;10528;52.124;5.196;2022-07-04T12:10:35;23.60;99.90
20735;DHT22;10528;52.124;5.196;2022-07-04T12:13:07;23.80;99.90
20735;DHT22;10528;52.124;5.196;2022-07-04T12:15:42;23.80;99.90
20735;DHT22;10528;52.124;5.196;2022-07-04T12:18:19;23.90;99.90
20735;DHT22;10528;52.124;5.196;2022-07-04T12:20:48;23.90;99.90
20735;DHT22;10528;52.124;5.196;2022-07-04T12:23:18;23.80;99.90
20735;DHT22;10528;52.124;5.196;2022-07-04T12:25:47;23.70;99.90
20735;DHT22;10528;52.124;5.196;2022-07-04T12:28:17;23.60;99.90
20735;DHT22;10528;52.124;5.196;2022-07-04T12:30:52;23.60;99.90
20735;DHT22;10528;52.124;5.196;2022-07-04T12:33:28;23.70;99.90
20735;DHT22;10528;52.124;5.196;2022-07-04T12:36:03;23.70;99.90
20735;DHT22;10528;52.124;5.196;2022-07-04T12:38:36;23.60;99.90
20735;DHT22;10528;52.124;5.196;2022-07-04T12:41:07;23.60;99.90
20735;DHT22;10528;52.124;5.196;2022-07-04T12:46:14;23.70;99.90
20735;DHT22;10528;52.124;5.196;2022-07-04T12:48:54;23.80;99.90
20735;DHT22;10528;52.124;5.196;2022-07-04T12:51:25;23.80;99.90
20735;DHT22;10528;52.124;5.196;2022-07-04T12:53:56;23.70;99.90
20735;DHT22;10528;52.124;5.196;2022-07-04T12:56:28;23.70;99.90
20735;DHT22;10528;52.124;5.196;2022-07-04T12:59:01;23.70;99.90
20735;DHT22;10528;52.124;5.196;2022-07-04T13:01:38;23.70;99.90
20735;DHT22;10528;52.124;5.196;2022-07-04T13:04:07;23.70;99.90
20735;DHT22;10528;52.124;5.196;2022-07-04T13:06:35;23.70;99.90
20735;DHT22;10528;52.124;5.196;2022-07-04T13:09:04;23.80;99.90
20735;DHT22;10528;52.124;5.196;2022-07-04T13:11:34;23.80;99.90
20735;DHT22;10528;52.124;5.196;2022-07-04T13:14:20;23.80;99.90
20735;DHT22;10528;52.124;5.196;2022-07-04T13:16:47;23.70;99.90
20735;DHT22;10528;52.124;5.196;2022-07-04T13:19:14;23.70;99.90
20735;DHT22;10528;52.124;5.196;2022-07-04T13:21:43;23.70;99.90
20735;DHT22;10528;52.124;5.196;2022-07-04T13:24:12;23.80;99.90
20735;DHT22;10528;52.124;5.196;2022-07-04T13:26:39;23.80;99.90
20735;DHT22;10528;52.124;5.196;2022-07-04T13:29:08;23.70;99.90
20735;DHT22;10528;52.124;5.196;2022-07-04T13:31:38;23.90;99.90
20735;DHT22;10528;52.124;5.196;2022-07-04T13:34:06;23.80;99.90
20735;DHT22;10528;52.124;5.196;2022-07-04T13:36:33;23.80;99.90
20735;DHT22;10528;52.124;5.196;2022-07-04T13:39:00;23.70;99.90
20735;DHT22;10528;52.124;5.196;2022-07-04T13:41:34;23.80;99.90
20735;DHT22;10528;52.124;5.196;2022-07-04T13:44:03;23.80;99.90
20735;DHT22;10528;52.124;5.196;2022-07-04T13:46:32;23.70;99.90
20735;DHT22;10528;52.124;5.196;2022-07-04T13:49:06;23.70;99.90
20735;DHT22;10528;52.124;5.196;2022-07-04T13:51:40;23.70;99.90
20735;DHT22;10528;52.124;5.196;2022-07-04T13:54:08;23.70;99.90
20735;DHT22;10528;52.124;5.196;2022-07-04T13:56:36;23.70;99.90
20735;DHT22;10528;52.124;5.196;2022-07-04T13:59:03;23.80;99.90
20735;DHT22;10528;52.124;5.196;2022-07-04T14:01:30;23.80;99.90
20735;DHT22;10528;52.124;5.196;2022-07-04T14:03:57;23.60;99.90
20735;DHT22;10528;52.124;5.196;2022-07-04T14:06:24;23.60;99.90
20735;DHT22;10528;52.124;5.196;2022-07-04T14:08:51;23.60;99.90
20735;DHT22;10528;52.124;5.196;2022-07-04T14:11:18;23.50;99.90
20735;DHT22;10528;52.124;5.196;2022-07-04T14:13:45;23.70;99.90
20735;DHT22;10528;52.124;5.196;2022-07-04T14:16:12;23.70;99.90
20735;DHT22;10528;52.124;5.196;2022-07-04T14:18:39;23.60;99.90
20735;DHT22;10528;52.124;5.196;2022-07-04T14:21:06;23.70;99.90
20735;DHT22;10528;52.124;5.196;2022-07-04T14:23:33;23.70;99.90
20735;DHT22;10528;52.124;5.196;2022-07-04T14:26:13;23.60;99.90
20735;DHT22;10528;52.124;5.196;2022-07-04T14:28:42;23.50;99.90
20735;DHT22;10528;52.124;5.196;2022-07-04T14:31:13;23.50;99.90
20735;DHT22;10528;52.124;5.196;2022-07-04T14:33:40;23.50;99.90
20735;DHT22;10528;52.124;5.196;2022-07-04T14:36:09;23.50;99.90
20735;DHT22;10528;52.124;5.196;2022-07-04T14:38:37;23.60;99.90
20735;DHT22;10528;52.124;5.196;2022-07-04T14:41:05;23.70;99.90
20735;DHT22;10528;52.124;5.196;2022-07-04T14:43:42;23.60;99.90
20735;DHT22;10528;52.124;5.196;2022-07-04T14:46:10;23.60;99.90
20735;DHT22;10528;52.124;5.196;2022-07-04T14:48:38;23.50;99.90
20735;DHT22;10528;52.124;5.196;2022-07-04T14:51:05;23.50;99.90
20735;DHT22;10528;52.124;5.196;2022-07-04T14:53:33;23.50;99.90
20735;DHT22;10528;52.124;5.196;2022-07-04T14:56:01;23.50;99.90
20735;DHT22;10528;52.124;5.196;2022-07-04T14:58:28;23.30;99.90
20735;DHT22;10528;52.124;5.196;2022-07-04T15:00:55;23.40;99.90
20735;DHT22;10528;52.124;5.196;2022-07-04T15:03:23;23.40;99.90
20735;DHT22;10528;52.124;5.196;2022-07-04T15:05:50;23.30;99.90
20735;DHT22;10528;52.124;5.196;2022-07-04T15:08:18;23.30;99.90
20735;DHT22;10528;52.124;5.196;2022-07-04T15:10:45;23.30;99.90
20735;DHT22;10528;52.124;5.196;2022-07-04T15:13:27;23.50;99.90
20735;DHT22;10528;52.124;5.196;2022-07-04T15:15:55;23.40;99.90
20735;DHT22;10528;52.124;5.196;2022-07-04T15:18:42;23.40;99.90
20735;DHT22;10528;52.124;5.196;2022-07-04T15:21:09;23.40;99.90
20735;DHT22;10528;52.124;5.196;2022-07-04T15:23:55;23.40;99.90
20735;DHT22;10528;52.124;5.196;2022-07-04T15:26:45;23.30;99.90
20735;DHT22;10528;52.124;5.196;2022-07-04T15:29:19;23.40;99.90
20735;DHT22;10528;52.124;5.196;2022-07-04T15:31:49;23.50;99.90
20735;DHT22;10528;52.124;5.196;2022-07-04T15:34:17;23.30;99.90
20735;DHT22;10528;52.124;5.196;2022-07-04T15:36:44;23.40;99.90
20735;DHT22;10528;52.124;5.196;2022-07-04T15:39:12;23.30;99.90
20735;DHT22;10528;52.124;5.196;2022-07-04T15:41:41;23.30;99.90
20735;DHT22;10528;52.124;5.196;2022-07-04T15:44:09;23.30;99.90
20735;DHT22;10528;52.124;5.196;2022-07-04T15:46:36;23.30;99.90
20735;DHT22;10528;52.124;5.196;2022-07-04T15:49:23;23.30;99.90
20735;DHT22;10528;52.124;5.196;2022-07-04T15:51:50;23.40;99.90
20735;DHT22;10528;52.124;5.196;2022-07-04T15:54:18;23.30;99.90
20735;DHT22;10528;52.124;5.196;2022-07-04T15:56:44;23.40;99.90
20735;DHT22;10528;52.124;5.196;2022-07-04T15:59:11;23.40;99.90
20735;DHT22;10528;52.124;5.196;2022-07-04T16:01:38;23.30;99.90
20735;DHT22;10528;52.124;5.196;2022-07-04T16:04:06;23.40;99.90
20735;DHT22;10528;52.124;5.196;2022-07-04T16:06:33;23.30;99.90
20735;DHT22;10528;52.124;5.196;2022-07-04T16:09:00;23.20;99.90
20735;DHT22;10528;52.124;5.196;2022-07-04T16:11:27;23.20;99.90
20735;DHT22;10528;52.124;5.196;2022-07-04T16:13:54;23.20;99.90
20735;DHT22;10528;52.124;5.196;2022-07-04T16:16:22;23.10;99.90
20735;DHT22;10528;52.124;5.196;2022-07-04T16:18:49;23.20;99.90
20735;DHT22;10528;52.124;5.196;2022-07-04T16:21:16;23.10;99.90